Time;durP1;ratioP1;P1;durP2;ratioP2;P2;SDS_P1;SDS_P2;PMS_P1;PMS_P2;Temp;Humidity;BMP_temperature;BMP_pressure;BME280_temperature;BME280_humidity;BME280_pressure;Samples;Min_cycle;Max_cycle;Signal;HPM_P1;HPM_P2
2022/06/03 00:01:37;;;;;;;11.13;3.40;;;;;;;21.80;60.13;98574.72;5093991;28;20031;-47
2022/06/03 00:04:14;;;;;;;6.90;3.80;;;;;;;21.56;60.88;98575.38;5094190;28;20367;-46
2022/06/03 00:06:42;;;;;;;10.05;3.20;;;;;;;21.38;61.12;98573.28;5091792;28;20031;-47
2022/06/03 00:09:30;;;;;;;10.48;3.58;;;;;;;21.29;61.92;98573.88;5093796;28;20128;-47
2022/06/03 00:12:26;;;;;;;12.98;3.45;;;;;;;21.22;62.10;98572.56;5093715;28;20032;-47
2022/06/03 00:14:59;;;;;;;;;;;;;;;21.33;61.86;98572.25;5094081;28;20031;-47
2022/06/03 00:17:55;;;;;;;12.93;2.95;;;;;;;21.28;62.35;98569.59;5092391;28;19912;-47
2022/06/03 00:20:39;;;;;;;14.48;4.30;;;;;;;21.25;62.50;98562.13;5093470;28;20047;-47
2022/06/03 00:23:29;;;;;;;13.18;4.43;;;;;;;21.28;62.15;98566.91;5093567;28;20028;-47
2022/06/03 00:26:06;;;;;;;10.00;3.35;;;;;;;21.11;62.25;98561.91;5092191;28;20474;-47
2022/06/03 00:28:55;;;;;;;6.35;3.20;;;;;;;20.84;62.84;98558.78;5092151;28;20055;-47
2022/06/03 00:31:55;;;;;;;7.32;3.22;;;;;;;20.65;63.72;98555.91;5064335;28;20110;-47
2022/06/03 00:34:20;;;;;;;11.23;3.42;;;;;;;20.49;64.04;98557.75;5091740;28;20073;-47
2022/06/03 00:37:28;;;;;;;18.83;4.22;;;;;;;20.44;64.43;98550.53;5093292;28;20079;-47
2022/06/03 00:40:07;;;;;;;8.63;3.60;;;;;;;20.39;64.27;98561.22;5091823;28;20414;-47
2022/06/03 00:42:57;;;;;;;10.02;3.17;;;;;;;20.36;64.69;98561.75;5091882;28;20032;-47
2022/06/03 00:45:38;;;;;;;10.73;3.13;;;;;;;20.55;64.50;98554.00;5093091;28;20039;-47
2022/06/03 00:48:31;;;;;;;9.15;2.75;;;;;;;20.80;63.48;98549.72;5091797;28;20091;-47
2022/06/03 00:51:15;;;;;;;10.90;3.35;;;;;;;20.70;63.35;98553.22;5091669;28;20036;-47
2022/06/03 00:54:05;;;;;;;5.60;2.83;;;;;;;20.49;63.39;98553.22;5091625;28;20409;-48
2022/06/03 00:56:43;;;;;;;8.05;2.88;;;;;;;20.44;63.73;98555.88;5092900;28;20032;-47
2022/06/03 00:59:24;;;;;;;6.60;2.65;;;;;;;20.59;62.91;98549.78;5092779;28;20031;-47
2022/06/03 01:02:27;;;;;;;14.45;3.20;;;;;;;20.50;63.17;98540.69;5092725;28;20036;-47
2022/06/03 01:05:20;;;;;;;12.07;3.45;;;;;;;20.35;63.48;98546.84;5091408;28;20020;-46
2022/06/03 01:08:05;;;;;;;9.43;3.22;;;;;;;20.28;63.73;98533.78;5092745;28;20028;-47
2022/06/03 01:10:52;;;;;;;10.13;3.00;;;;;;;20.35;63.89;98534.31;5092626;28;20498;-46
2022/06/03 01:13:41;;;;;;;8.38;3.08;;;;;;;20.57;62.95;98537.75;5092632;28;20107;-47
2022/06/03 01:16:36;;;;;;;6.25;3.28;;;;;;;20.75;62.68;98534.53;5092833;28;20020;-47
2022/06/03 01:19:31;;;;;;;7.85;3.25;;;;;;;20.75;62.35;98535.34;5079055;28;20042;-47
2022/06/03 01:22:34;;;;;;;12.93;3.38;;;;;;;20.72;62.20;98540.41;5091179;28;20028;-47
2022/06/03 01:25:30;;;;;;;7.32;3.10;;;;;;;20.79;62.22;98535.59;5091093;28;20024;-47
2022/06/03 01:28:29;;;;;;;11.20;3.45;;;;;;;20.84;62.24;98532.09;5092436;28;20020;-47
2022/06/03 01:31:37;;;;;;;14.63;3.42;;;;;;;21.08;62.04;98526.97;5091043;28;20034;-48
2022/06/03 01:34:14;;;;;;;9.95;2.70;;;;;;;21.29;61.07;98527.69;5029726;28;20087;-47
2022/06/03 01:37:15;;;;;;;11.90;3.00;;;;;;;21.25;61.04;98537.28;5029856;28;20049;-47
2022/06/03 01:39:50;;;;;;;7.93;3.28;;;;;;;21.12;60.89;98536.03;5029773;28;20384;-46
2022/06/03 01:42:16;;;;;;;6.18;3.35;;;;;;;21.01;61.35;98534.47;5013365;28;20040;-47
2022/06/03 01:45:18;;;;;;;12.82;3.00;;;;;;;20.90;61.62;98526.47;5029728;28;20499;-47
2022/06/03 01:47:56;;;;;;;12.00;3.10;;;;;;;20.65;62.09;98514.03;5029652;28;20104;-47
2022/06/03 01:50:30;;;;;;;10.98;5.03;;;;;;;20.49;62.95;98515.91;5013119;28;20040;-47
2022/06/03 01:53:06;;;;;;;15.90;3.92;;;;;;;20.40;63.32;98522.03;5029713;28;20025;-47
2022/06/03 01:56:00;;;;;;;14.30;3.90;;;;;;;20.54;63.66;98521.22;5029548;28;20168;-47
2022/06/03 01:58:48;;;;;;;12.52;3.13;;;;;;;20.54;62.77;98507.91;5013016;28;20434;-48
2022/06/03 02:02:00;;;;;;;7.30;3.00;;;;;;;20.37;63.16;98499.38;5029666;28;20022;-48
2022/06/03 02:04:44;;;;;;;15.40;3.40;;;;;;;20.27;63.54;98497.53;5029509;28;20046;-48
2022/06/03 02:07:56;;;;;;;6.95;3.10;;;;;;;20.25;64.05;98504.19;5029560;28;20030;-49
2022/06/03 02:10:31;;;;;;;10.60;3.25;;;;;;;20.29;63.81;98502.59;4981883;28;20037;-48
2022/06/03 02:12:59;;;;;;;;;;;;;;;20.39;63.65;98504.47;5029922;28;20022;-49
2022/06/03 02:15:24;;;;;;;9.32;2.80;;;;;;;20.46;63.45;98502.28;5029382;28;19947;-48
2022/06/03 02:18:09;;;;;;;7.45;2.53;;;;;;;20.52;63.48;98499.38;5029391;28;20029;-48
2022/06/03 02:20:54;;;;;;;8.70;3.40;;;;;;;20.60;63.29;98500.69;5029359;28;20527;-49
2022/06/03 02:24:01;;;;;;;8.77;3.13;;;;;;;20.43;63.17;98500.19;5028987;28;20049;-49
2022/06/03 02:27:28;;;;;;;10.57;3.03;;;;;;;20.31;63.51;98508.47;5029294;28;20083;-49
2022/06/03 02:30:24;;;;;;;14.30;3.22;;;;;;;20.31;63.48;98503.13;4957114;28;20150;-49
2022/06/03 02:33:05;;;;;;;9.05;3.15;;;;;;;20.29;63.62;98495.41;4974482;28;20059;-48
2022/06/03 02:35:33;;;;;;;10.27;3.40;;;;;;;20.19;63.63;98500.75;4974117;28;20054;-48
2022/06/03 02:38:34;;;;;;;11.35;3.05;;;;;;;20.08;64.24;98497.28;4974127;28;20100;-49
2022/06/03 02:41:24;;;;;;;12.07;3.40;;;;;;;20.11;64.05;98498.63;4974244;28;20531;-48
2022/06/03 02:44:40;;;;;;;13.40;3.75;;;;;;;20.10;64.17;98505.00;4974358;28;20034;-49
2022/06/03 02:47:36;;;;;;;5.30;2.95;;;;;;;20.22;63.92;98500.22;4979467;28;20033;-48
2022/06/03 02:50:22;;;;;;;9.85;3.10;;;;;;;20.25;63.95;98514.88;5016234;28;20025;-49
2022/06/03 02:53:18;;;;;;;15.38;3.53;;;;;;;20.37;64.04;98499.38;5031737;28;20057;-48
2022/06/03 02:56:15;;;;;;;6.20;3.42;;;;;;;20.46;63.56;98499.63;5032898;28;20087;-48
2022/06/03 02:58:44;;;;;;;6.93;3.58;;;;;;;20.38;63.53;98498.31;5002804;28;20029;-49
2022/06/03 03:01:32;;;;;;;9.63;4.70;;;;;;;20.38;63.76;98498.31;5081977;28;20520;-49
2022/06/03 03:04:43;;;;;;;7.38;3.63;;;;;;;20.36;63.76;98503.09;5095135;28;20052;-48
2022/06/03 03:07:20;;;;;;;7.95;3.17;;;;;;;20.35;63.67;98509.53;5095063;28;20020;-48
2022/06/03 03:10:03;;;;;;;9.82;3.00;;;;;;;20.40;63.87;98517.50;5095075;28;20558;-48
2022/06/03 03:13:07;;;;;;;9.40;3.45;;;;;;;20.45;63.62;98511.38;5094921;28;20027;-48
2022/06/03 03:15:45;;;;;;;8.98;3.03;;;;;;;20.32;63.93;98518.84;5094918;28;20024;-49
2022/06/03 03:18:29;;;;;;;10.68;3.72;;;;;;;20.31;64.35;98519.13;5095084;28;20389;-48
2022/06/03 03:21:15;;;;;;;7.28;3.20;;;;;;;20.35;64.35;98512.19;5094777;28;20016;-49
2022/06/03 03:24:06;;;;;;;10.00;3.20;;;;;;;20.43;64.35;98510.84;5093585;28;20032;-48
2022/06/03 03:26:50;;;;;;;9.38;3.42;;;;;;;20.49;64.03;98509.78;5094713;28;20036;-48
2022/06/03 03:29:22;;;;;;;15.18;7.03;;;;;;;20.51;63.72;98499.63;5094717;28;20077;-49
2022/06/03 03:32:02;;;;;;;13.20;4.20;;;;;;;20.53;63.53;98506.28;5094573;28;20028;-48
2022/06/03 03:35:03;;;;;;;11.70;3.75;;;;;;;20.50;63.62;98501.50;5094327;28;20101;-48
2022/06/03 03:37:56;;;;;;;8.85;4.30;;;;;;;20.49;63.59;98507.91;5094772;28;20024;-48
2022/06/03 03:40:57;;;;;;;11.80;4.38;;;;;;;20.53;63.83;98516.94;5093203;28;20095;-48
2022/06/03 03:43:50;;;;;;;10.73;4.68;;;;;;;20.59;63.66;98509.78;5074364;28;20524;-49
2022/06/03 03:46:44;;;;;;;8.52;4.35;;;;;;;20.51;63.31;98500.44;5092933;28;20032;-48
2022/06/03 03:49:44;;;;;;;11.25;3.72;;;;;;;20.53;63.56;98494.84;5094292;28;20038;-49
2022/06/03 03:52:15;;;;;;;10.50;3.58;;;;;;;20.65;63.18;98486.56;5092842;28;20031;-49
2022/06/03 03:54:44;;;;;;;14.85;4.07;;;;;;;20.65;63.07;98484.69;5092884;28;20093;-49
2022/06/03 03:57:19;;;;;;;9.15;3.20;;;;;;;20.58;62.90;98484.13;5092807;28;20028;-49
2022/06/03 04:00:09;;;;;;;8.15;3.45;;;;;;;20.50;63.08;98471.38;5094101;28;20110;-49
2022/06/03 04:02:53;;;;;;;10.15;3.88;;;;;;;20.51;62.99;98476.44;5093974;28;20091;-49
2022/06/03 04:05:49;;;;;;;14.73;3.85;;;;;;;20.44;63.36;98475.13;5093996;28;20066;-48
2022/06/03 04:08:39;;;;;;;10.05;3.85;;;;;;;20.38;63.72;98473.53;5093931;28;20028;-49
2022/06/03 04:11:23;;;;;;;12.32;4.03;;;;;;;20.34;63.88;98471.41;5092546;28;20055;-49
2022/06/03 04:13:58;;;;;;;7.80;3.17;;;;;;;20.40;63.79;98464.19;5093810;28;20020;-49
2022/06/03 04:16:48;;;;;;;10.27;4.00;;;;;;;20.48;63.43;98468.16;5093688;28;20028;-48
2022/06/03 04:19:27;;;;;;;16.02;4.05;;;;;;;20.61;63.46;98464.19;5093594;28;20027;-49
2022/06/03 04:22:06;;;;;;;9.88;3.17;;;;;;;20.65;62.58;98444.69;5093624;28;20110;-49
2022/06/03 04:25:11;;;;;;;12.77;3.05;;;;;;;20.57;62.36;98449.78;5092253;28;20386;-49
2022/06/03 04:27:50;;;;;;;10.57;3.10;;;;;;;20.49;62.39;98435.13;5092238;28;20028;-48
2022/06/03 04:30:38;;;;;;;9.75;3.47;;;;;;;20.47;62.16;98443.38;5093459;28;20032;-48
2022/06/03 04:33:07;;;;;;;13.90;4.53;;;;;;;20.52;62.73;98446.06;5093361;28;20031;-48
2022/06/03 04:35:57;;;;;;;7.75;3.53;;;;;;;20.62;62.50;98439.91;5093155;28;20509;-49
2022/06/03 04:39:00;;;;;;;13.63;3.97;;;;;;;20.72;62.04;98439.06;5091891;28;20028;-48
2022/06/03 04:41:41;;;;;;;9.30;2.95;;;;;;;20.75;61.62;98428.66;5014165;28;20107;-48
2022/06/03 04:44:22;;;;;;;13.73;3.30;;;;;;;20.88;61.30;98435.25;5030920;28;20069;-49
2022/06/03 04:47:18;;;;;;;14.27;3.38;;;;;;;21.10;60.90;98437.56;5030717;28;20049;-49
2022/06/03 04:50:28;;;;;;;8.43;2.97;;;;;;;21.23;59.34;98438.00;5030765;28;20104;-49
2022/06/03 04:53:14;;;;;;;18.77;3.67;;;;;;;21.28;59.67;98436.13;5030452;28;20049;-49
2022/06/03 04:56:10;;;;;;;13.50;3.55;;;;;;;21.33;59.77;98433.44;5030664;28;20029;-48
2022/06/03 04:58:54;;;;;;;8.10;2.83;;;;;;;21.46;59.32;98439.25;5013832;28;20046;-48
2022/06/03 05:01:43;;;;;;;12.68;3.45;;;;;;;21.53;59.29;98437.88;5030526;28;20029;-49
2022/06/03 05:04:21;;;;;;;23.52;3.53;;;;;;;22.11;58.30;98437.13;5030456;28;20037;-49
2022/06/03 05:07:09;;;;;;;9.95;3.60;;;;;;;22.46;57.49;98435.19;5030366;28;20454;-49
2022/06/03 05:10:12;;;;;;;17.75;5.70;;;;;;;22.72;56.12;98434.91;5030424;28;20029;-49
2022/06/03 05:12:50;;;;;;;11.68;3.78;;;;;;;22.88;55.62;98446.22;5064246;28;20042;-49
2022/06/03 05:16:03;;;;;;;8.10;3.42;;;;;;;22.93;55.52;98446.13;5092597;28;20035;-47
2022/06/03 05:18:44;;;;;;;15.50;4.15;;;;;;;22.79;56.51;98438.00;5091164;28;20024;-47
2022/06/03 05:21:33;;;;;;;22.48;4.03;;;;;;;22.95;56.33;98433.25;5092500;28;20537;-47
2022/06/03 05:24:05;;;;;;;14.70;3.67;;;;;;;23.02;55.04;98432.94;5091138;28;20020;-47
2022/06/03 05:26:37;;;;;;;17.45;4.97;;;;;;;22.96;55.57;98432.19;5092322;28;20497;-48
2022/06/03 05:29:06;;;;;;;25.13;4.30;;;;;;;23.12;55.60;98436.28;5091086;28;20055;-48
2022/06/03 05:31:50;;;;;;;25.60;4.43;;;;;;;23.39;54.68;98440.19;5090981;28;20024;-47
2022/06/03 05:34:34;;;;;;;13.02;4.00;;;;;;;23.38;54.30;98441.28;5091974;28;20453;-47
2022/06/03 05:37:26;;;;;;;19.73;3.95;;;;;;;23.26;54.95;98438.22;5092218;28;20031;-47
2022/06/03 05:39:58;;;;;;;21.27;4.50;;;;;;;23.01;55.18;98434.00;5092134;28;20024;-47
2022/06/03 05:42:53;;;;;;;15.85;3.47;;;;;;;22.83;55.22;98435.56;5092187;28;20028;-48
2022/06/03 05:45:36;;;;;;;13.53;3.73;;;;;;;22.65;56.17;98434.44;5063031;28;20037;-47
2022/06/03 05:48:06;;;;;;;12.52;3.63;;;;;;;22.65;56.02;98429.09;5092107;28;20258;-47
2022/06/03 05:51:04;;;;;;;9.77;3.80;;;;;;;22.67;55.92;98425.03;5090792;28;20032;-47
2022/06/03 05:53:48;;;;;;;11.45;3.35;;;;;;;23.11;55.29;98415.16;5092075;28;20061;-47
2022/06/03 05:56:34;;;;;;;10.88;3.22;;;;;;;23.78;54.17;98417.63;5090744;28;20408;-47
2022/06/03 05:59:07;;;;;;;16.60;3.25;;;;;;;24.67;51.81;98416.56;5091911;28;20568;-47
2022/06/03 06:01:45;;;;;;;14.05;3.25;;;;;;;25.10;49.99;98412.72;5073885;28;20040;-47
2022/06/03 06:04:29;;;;;;;10.82;3.20;;;;;;;25.30;49.34;98416.84;5089980;28;20031;-47
2022/06/03 06:07:19;;;;;;;11.27;3.08;;;;;;;25.40;49.40;98421.22;5091993;28;20111;-46
2022/06/03 06:10:09;;;;;;;9.68;3.58;;;;;;;25.38;48.91;98424.19;5091913;28;20035;-47
2022/06/03 06:12:58;;;;;;;9.05;2.90;;;;;;;25.29;48.84;98434.06;5091905;28;20064;-48
2022/06/03 06:15:53;;;;;;;10.82;3.17;;;;;;;25.34;50.03;98441.22;5091849;28;20047;-47
2022/06/03 06:18:40;;;;;;;7.10;3.33;;;;;;;25.43;50.49;98442.06;5085903;28;20036;-47
2022/06/03 06:21:37;;;;;;;11.98;3.63;;;;;;;25.56;50.62;98449.31;5091704;28;20020;-47
2022/06/03 06:24:21;;;;;;;12.75;3.80;;;;;;;25.77;50.13;98454.97;5090456;28;20494;-47
2022/06/03 06:27:32;;;;;;;17.43;3.87;;;;;;;26.11;49.35;98475.94;5091771;28;20024;-47
2022/06/03 06:30:10;;;;;;;11.98;3.40;;;;;;;26.74;48.74;98484.00;5090390;28;20074;-48
2022/06/03 06:32:58;;;;;;;8.18;3.70;;;;;;;27.36;46.68;98484.94;5091645;28;20073;-48
2022/06/03 06:35:57;;;;;;;13.32;4.10;;;;;;;28.01;45.24;98492.09;5091290;28;20045;-48
2022/06/03 06:38:51;;;;;;;29.65;5.47;;;;;;;28.29;43.85;98486.28;5090263;28;20032;-48
2022/06/03 06:41:29;;;;;;;12.55;3.63;;;;;;;27.89;43.60;98489.25;5091545;28;20024;-48
2022/06/03 06:44:10;;;;;;;20.20;4.30;;;;;;;27.32;44.60;98494.78;5091617;28;20396;-47
2022/06/03 06:46:45;;;;;;;8.65;3.75;;;;;;;27.21;44.85;98503.13;5091531;28;20025;-48
2022/06/03 06:49:19;;;;;;;;;;;;;;;27.29;45.21;98507.78;5091920;28;20063;-48
2022/06/03 06:52:10;;;;;;;18.02;3.65;;;;;;;27.17;45.18;98506.78;5091423;28;19912;-48
2022/06/03 06:54:47;;;;;;;19.40;3.95;;;;;;;27.09;45.30;98506.44;5091573;28;20736;-49
2022/06/03 06:57:25;;;;;;;18.38;4.25;;;;;;;26.80;45.39;98520.47;5091449;28;20028;-49
2022/06/03 07:00:02;;;;;;;17.02;4.70;;;;;;;26.51;46.42;98526.31;5091391;28;20044;-47
2022/06/03 07:02:42;;;;;;;17.27;4.00;;;;;;;26.69;46.60;98519.94;5091597;28;20119;-47
2022/06/03 07:05:18;;;;;;;14.57;4.70;;;;;;;26.68;46.78;98528.31;5091334;28;20112;-48
2022/06/03 07:08:12;;;;;;;16.40;4.28;;;;;;;26.89;47.03;98534.75;5090055;28;20064;-47
2022/06/03 07:10:49;;;;;;;17.65;3.72;;;;;;;27.41;45.88;98538.72;5091337;28;20031;-50
2022/06/03 07:13:42;;;;;;;20.65;3.78;;;;;;;27.81;44.93;98546.63;5091267;28;20417;-50
2022/06/03 07:16:14;;;;;;;14.50;4.30;;;;;;;28.21;44.45;98552.69;5094061;28;20547;-49
2022/06/03 07:22:26;;;;;;;16.88;3.83;;;;;;;28.30;43.63;98558.06;5094793;28;20097;-49
2022/06/03 07:25:05;;;;;;;21.55;4.43;;;;;;;28.03;44.07;98560.00;5032290;28;20119;-49
2022/06/03 07:27:39;;;;;;;17.17;3.72;;;;;;;27.87;44.56;98567.78;5032281;28;20084;-49
2022/06/03 07:30:28;;;;;;;15.40;4.03;;;;;;;27.82;44.30;98569.81;5032185;28;20116;-48
2022/06/03 07:33:31;;;;;;;16.85;3.83;;;;;;;27.64;44.68;98574.41;4992593;28;20033;-49
2022/06/03 07:36:24;;;;;;;8.95;3.92;;;;;;;27.73;44.57;98586.00;5020039;28;20048;-47
2022/06/03 07:39:02;;;;;;;18.58;4.50;;;;;;;28.01;44.22;98581.13;5015459;28;20029;-47
2022/06/03 07:42:00;;;;;;;14.20;4.47;;;;;;;28.33;44.05;98592.50;5032074;28;20041;-47
2022/06/03 07:44:38;;;;;;;17.80;4.00;;;;;;;28.29;43.44;98599.63;5031365;28;20065;-48
2022/06/03 07:47:07;;;;;;;34.97;4.57;;;;;;;28.51;43.19;98597.88;5031866;28;20100;-49
2022/06/03 07:49:38;;;;;;;26.23;5.75;;;;;;;28.85;42.69;98608.59;5031768;28;20580;-49
2022/06/03 07:52:12;;;;;;;20.45;4.63;;;;;;;29.15;42.27;98607.88;5031870;28;20045;-47
2022/06/03 07:54:42;;;;;;;;;;;;;;;29.50;42.54;98611.19;5032345;28;20453;-49
2022/06/03 07:57:17;;;;;;;21.92;4.85;;;;;;;29.76;41.32;98599.41;5031754;28;19948;-48
2022/06/03 07:59:43;;;;;;;12.45;3.70;;;;;;;29.96;40.80;98598.63;5085303;28;20040;-49
2022/06/03 08:02:13;;;;;;;36.72;5.22;;;;;;;29.86;40.86;98599.00;5093987;28;20028;-47
2022/06/03 08:04:40;;;;;;;25.58;4.82;;;;;;;30.00;40.74;98604.97;5094183;28;20032;-47
2022/06/03 08:12:59;;;;;;;15.82;3.80;;;;;;;29.59;41.33;98595.69;5094144;28;19961;-47
2022/06/03 08:15:34;;;;;;;35.30;5.68;;;;;;;29.65;41.35;98594.38;5093772;28;20028;-47
2022/06/03 08:18:02;;;;;;;29.38;5.15;;;;;;;30.04;40.10;98597.78;5093737;28;20024;-47
2022/06/03 08:20:29;;;;;;;23.38;5.05;;;;;;;30.31;40.19;98594.84;5093759;28;20028;-48
2022/06/03 08:22:55;;;;;;;19.75;5.18;;;;;;;30.94;39.20;98602.78;5093686;28;20032;-49
2022/06/03 08:25:27;;;;;;;16.67;4.70;;;;;;;31.28;38.35;98593.41;5093524;28;20034;-49
2022/06/03 08:27:57;;;;;;;16.15;4.60;;;;;;;31.12;38.31;98606.06;5091675;28;20032;-47
2022/06/03 08:30:25;;;;;;;23.60;5.05;;;;;;;30.78;38.93;98608.84;5093684;28;20098;-47
2022/06/03 08:32:59;;;;;;;23.95;5.22;;;;;;;30.23;40.18;98608.09;5092376;28;20036;-47
2022/06/03 08:35:30;;;;;;;15.38;5.50;;;;;;;30.16;40.40;98598.94;5097157;28;20052;-49
2022/06/03 08:38:11;;;;;;;17.42;5.40;;;;;;;30.09;40.47;98602.19;5092000;28;20063;-47
2022/06/03 08:40:57;;;;;;;23.65;6.07;;;;;;;29.73;41.09;98600.09;5091985;28;20055;-47
2022/06/03 08:43:46;;;;;;;11.15;5.30;;;;;;;29.46;41.64;98613.75;5093475;28;20048;-48
2022/06/03 08:46:29;;;;;;;12.30;5.35;;;;;;;29.42;41.32;98604.72;5091817;28;20162;-47
2022/06/03 08:49:03;;;;;;;8.98;5.05;;;;;;;29.53;41.16;98609.75;5093168;28;20027;-48
2022/06/03 08:51:42;;;;;;;21.95;9.05;;;;;;;29.82;40.97;98601.63;5093048;28;20016;-47
2022/06/03 08:54:22;;;;;;;13.00;5.45;;;;;;;30.13;40.26;98600.41;5093065;28;20043;-49
2022/06/03 08:56:51;;;;;;;12.55;5.70;;;;;;;30.30;39.96;98613.00;5091725;28;20046;-48
2022/06/03 09:00:04;;;;;;;18.48;5.57;;;;;;;29.88;40.60;98618.41;5092870;28;20031;-49
2022/06/03 09:02:39;;;;;;;9.80;4.20;;;;;;;29.38;41.18;98621.91;5030469;28;20495;-47
2022/06/03 09:05:08;;;;;;;;;;;;;;;29.18;41.40;98623.44;5030846;28;20044;-48
2022/06/03 09:07:38;;;;;;;21.02;4.85;;;;;;;28.84;42.36;98620.53;5013859;28;19913;-47
2022/06/03 09:10:12;;;;;;;17.33;5.55;;;;;;;28.39;43.46;98631.72;5030325;28;20033;-48
2022/06/03 09:12:46;;;;;;;11.48;4.93;;;;;;;28.17;43.81;98629.19;5030310;28;20094;-47
2022/06/03 09:15:21;;;;;;;17.35;4.75;;;;;;;28.38;43.13;98632.81;5013697;28;20033;-48
2022/06/03 09:17:58;;;;;;;13.63;4.78;;;;;;;29.11;41.79;98632.03;5030282;28;20117;-47
2022/06/03 09:20:29;;;;;;;14.45;4.35;;;;;;;29.64;40.05;98636.06;5030140;28;20508;-48
2022/06/03 09:23:10;;;;;;;7.93;4.10;;;;;;;29.60;40.28;98643.25;5030129;28;20459;-48
2022/06/03 09:25:42;;;;;;;14.73;4.07;;;;;;;29.53;40.28;98651.09;5030128;28;20457;-49
2022/06/03 09:28:15;;;;;;;11.95;3.67;;;;;;;29.82;40.71;98654.91;5030107;28;20033;-48
2022/06/03 09:30:43;;;;;;;16.40;4.05;;;;;;;30.10;39.78;98647.06;5030070;28;20072;-49
2022/06/03 09:33:13;;;;;;;20.25;4.72;;;;;;;30.03;38.95;98647.59;5029965;28;20037;-49
2022/06/03 09:35:44;;;;;;;14.32;3.88;;;;;;;30.14;38.45;98647.97;5013130;28;20466;-48
2022/06/03 09:38:12;;;;;;;10.45;3.72;;;;;;;30.44;38.51;98656.03;5049406;28;20080;-48
2022/06/03 09:40:43;;;;;;;7.55;3.25;;;;;;;31.23;37.82;98653.28;5092195;28;20509;-47
2022/06/03 09:43:27;;;;;;;7.85;3.22;;;;;;;31.40;35.17;98661.22;5092454;28;20025;-48
2022/06/03 09:45:56;;;;;;;7.03;3.22;;;;;;;30.84;36.45;98664.38;5091247;28;20382;-48
2022/06/03 09:48:26;;;;;;;7.93;2.85;;;;;;;30.60;36.99;98661.63;5090815;28;20036;-49
2022/06/03 09:50:54;;;;;;;9.02;2.90;;;;;;;30.72;37.75;98669.78;5092296;28;20036;-48
2022/06/03 09:53:25;;;;;;;11.80;3.03;;;;;;;31.14;36.58;98666.97;5091993;28;20035;-48
2022/06/03 09:55:55;;;;;;;9.40;3.17;;;;;;;31.48;35.54;98664.19;5092287;28;20032;-47
2022/06/03 09:58:25;;;;;;;4.47;2.40;;;;;;;31.18;35.23;98664.38;5090541;28;20393;-48
2022/06/03 10:00:53;;;;;;;10.05;3.00;;;;;;;30.86;35.74;98661.34;5090625;28;20040;-48
2022/06/03 10:03:21;;;;;;;13.98;3.20;;;;;;;30.55;36.90;98661.84;5091888;28;20035;-49
2022/06/03 10:05:51;;;;;;;15.05;2.95;;;;;;;30.84;36.67;98658.97;5090840;28;20447;-49
2022/06/03 10:08:28;;;;;;;7.45;2.70;;;;;;;31.71;35.51;98646.28;5091887;28;20494;-49
2022/06/03 10:13:43;;;;;;;12.60;3.00;;;;;;;34.11;31.64;98657.06;5092144;28;20035;-51
2022/06/03 10:16:13;;;;;;;8.60;2.65;;;;;;;34.06;30.65;98646.44;5091707;28;20032;-50
2022/06/03 10:18:41;;;;;;;7.35;2.97;;;;;;;33.48;31.66;98649.06;5091780;28;20024;-49
2022/06/03 10:21:07;;;;;;;8.68;2.47;;;;;;;32.74;32.75;98647.66;5091695;28;20410;-49
2022/06/03 10:23:37;;;;;;;14.32;2.70;;;;;;;32.14;34.28;98644.06;5091751;28;20093;-49
2022/06/03 10:26:05;;;;;;;14.43;3.17;;;;;;;31.86;34.54;98642.09;5091761;28;20062;-48
2022/06/03 10:28:36;;;;;;;12.98;4.70;;;;;;;31.34;35.78;98643.59;5091678;28;20055;-48
2022/06/03 10:31:14;;;;;;;10.70;3.10;;;;;;;30.91;36.75;98635.97;5091596;28;20032;-48
2022/06/03 10:33:39;;;;;;;15.30;4.10;;;;;;;30.78;37.32;98630.50;5090369;28;20032;-49
2022/06/03 10:36:06;;;;;;;7.93;2.80;;;;;;;30.59;37.52;98632.97;5091190;28;20047;-48
2022/06/03 10:38:36;;;;;;;11.20;3.60;;;;;;;30.29;38.95;98619.53;5091541;28;20069;-49
2022/06/03 10:41:09;;;;;;;8.55;3.10;;;;;;;29.93;40.79;98610.13;5091560;28;20512;-49
2022/06/03 10:43:36;;;;;;;7.15;2.88;;;;;;;29.95;40.07;98618.69;5091640;28;20103;-47
2022/06/03 10:46:15;;;;;;;19.00;4.47;;;;;;;30.65;40.79;98591.00;5091773;28;20477;-48
2022/06/03 10:48:42;;;;;;;14.35;4.68;;;;;;;31.01;38.87;98587.56;5091434;28;20501;-48
2022/06/03 10:51:15;;;;;;;9.23;3.22;;;;;;;31.92;36.92;98575.56;5094540;28;20509;-48
2022/06/03 11:02:02;;;;;;;26.35;5.25;;;;;;;34.59;32.15;98577.78;5095181;28;20039;-49
2022/06/03 11:04:28;;;;;;;16.48;3.35;;;;;;;35.89;29.58;98570.38;5095170;28;20107;-50
2022/06/03 11:06:54;;;;;;;9.73;2.40;;;;;;;36.24;27.56;98580.16;5095135;28;20541;-50
2022/06/03 11:09:22;;;;;;;16.30;3.50;;;;;;;36.32;28.14;98565.41;5094961;28;20028;-50
2022/06/03 11:11:57;;;;;;;9.85;2.70;;;;;;;37.32;26.31;98553.69;5094963;28;20069;-50
2022/06/03 11:14:28;;;;;;;9.55;2.85;;;;;;;37.97;25.65;98538.28;5093748;28;20066;-50
2022/06/03 11:17:10;;;;;;;13.23;3.72;;;;;;;37.91;26.01;98539.84;5094893;28;20032;-49
2022/06/03 11:19:47;;;;;;;24.17;5.45;;;;;;;37.70;25.53;98544.09;5095100;28;20047;-49
2022/06/03 11:22:26;;;;;;;13.43;2.55;;;;;;;37.72;25.26;98533.53;5094819;28;20032;-50
2022/06/03 11:24:54;;;;;;;16.30;6.10;;;;;;;38.40;24.18;98534.88;5095082;28;20024;-49
2022/06/03 11:27:28;;;;;;;12.52;3.25;;;;;;;38.36;22.48;98521.16;5093427;28;20378;-48
2022/06/03 11:29:59;;;;;;;15.38;3.10;;;;;;;37.97;23.12;98517.19;5094698;28;20097;-49
2022/06/03 11:32:28;;;;;;;21.33;3.40;;;;;;;37.27;23.87;98523.91;5094725;28;20039;-49
2022/06/03 11:35:02;;;;;;;19.55;5.32;;;;;;;37.52;23.57;98515.84;5093945;28;20020;-52
2022/06/03 11:37:36;;;;;;;15.85;2.90;;;;;;;37.60;22.27;98511.97;5094652;28;20032;-50
2022/06/03 11:40:20;;;;;;;11.57;2.85;;;;;;;37.67;22.34;98514.75;5093237;28;20515;-49
2022/06/03 11:42:58;;;;;;;;;;;;;;;37.43;23.13;98507.97;5093647;28;20028;-49
2022/06/03 11:45:49;;;;;;;11.30;3.05;;;;;;;37.36;23.44;98505.97;5094435;28;19961;-49
2022/06/03 11:48:33;;;;;;;8.65;2.42;;;;;;;37.68;22.39;98504.56;5093023;28;20378;-49
2022/06/03 11:51:00;;;;;;;14.32;3.22;;;;;;;37.45;22.29;98499.38;5094800;28;20128;-51
2022/06/03 11:53:33;;;;;;;13.50;3.33;;;;;;;37.33;22.30;98508.72;5094191;28;20047;-49
2022/06/03 11:56:02;;;;;;;12.47;2.53;;;;;;;37.22;22.48;98496.94;5094386;28;20032;-48
2022/06/03 11:58:41;;;;;;;13.02;2.83;;;;;;;37.06;22.04;98494.47;5092720;28;20024;-50
2022/06/03 12:01:13;;;;;;;13.15;3.13;;;;;;;36.67;22.52;98498.53;5091867;28;20520;-50
2022/06/03 12:03:54;;;;;;;7.20;2.13;;;;;;;36.83;21.92;98489.28;5092694;28;20031;-50
2022/06/03 12:06:38;;;;;;;8.98;2.72;;;;;;;36.97;22.32;98501.06;5092648;28;20061;-49
2022/06/03 12:09:25;;;;;;;18.75;3.70;;;;;;;36.87;22.31;98501.78;5093992;28;20028;-49
2022/06/03 12:15:31;;;;;;;7.25;2.35;;;;;;;37.04;22.42;98486.63;5093806;28;20062;-49
2022/06/03 12:18:07;;;;;;;14.05;2.97;;;;;;;37.17;21.80;98487.91;5093760;28;20024;-49
2022/06/03 12:20:47;;;;;;;12.77;3.33;;;;;;;37.20;22.67;98486.38;5093776;28;20096;-48
2022/06/03 12:23:12;;;;;;;11.98;2.22;;;;;;;37.17;22.22;98493.41;5093906;28;20397;-50
2022/06/03 12:25:41;;;;;;;14.88;2.92;;;;;;;37.22;22.33;98496.94;5093515;28;20032;-50
2022/06/03 12:28:54;;;;;;;11.40;2.53;;;;;;;37.26;21.93;98492.25;5093481;28;20028;-48
2022/06/03 12:31:20;;;;;;;6.40;2.35;;;;;;;37.20;21.80;98486.38;5080010;28;20126;-48
2022/06/03 12:34:01;;;;;;;6.03;2.13;;;;;;;36.73;22.38;98483.34;5093388;28;20042;-50
2022/06/03 12:37:00;;;;;;;11.35;3.35;;;;;;;36.38;22.89;98486.56;5093040;28;20044;-50
2022/06/03 12:39:53;;;;;;;12.30;2.42;;;;;;;36.37;22.61;98485.00;5093322;28;20036;-50
2022/06/03 12:42:37;;;;;;;11.88;2.67;;;;;;;36.34;22.86;98481.06;5093157;28;20063;-48
2022/06/03 12:45:06;;;;;;;13.07;2.45;;;;;;;36.39;23.02;98474.47;5093155;28;20032;-50
2022/06/03 12:47:31;;;;;;;8.40;2.67;;;;;;;36.13;22.83;98472.66;5093146;28;20070;-50
2022/06/03 12:50:34;;;;;;;6.68;2.55;;;;;;;35.87;23.26;98468.91;5093084;28;20032;-49
2022/06/03 12:53:20;;;;;;;8.57;2.63;;;;;;;35.74;23.88;98467.59;5092986;28;20028;-50
2022/06/03 12:55:55;;;;;;;6.80;2.38;;;;;;;35.51;24.38;98459.50;5091763;28;20486;-50
2022/06/03 12:58:38;;;;;;;6.85;2.80;;;;;;;35.16;24.51;98477.81;5091648;28;20393;-50
2022/06/03 13:01:06;;;;;;;13.75;3.50;;;;;;;34.92;25.95;98465.38;5092960;28;20078;-49